ADDS METAR Data INFO
IDs: Format: Raw Decoded Include TAF

Data at: 0030 UTC 17 Dec 2017

KGHG 170015Z AUTO 28006KT 10SM CLR M02/M07 A3006 RMK AO2
KGHG 162355Z AUTO VRB04KT 10SM CLR M01/M07 A3005 RMK AO2
KGHG 162335Z AUTO VRB04G10KT 10SM CLR M01/M07 A3004 RMK AO2
KGHG 162315Z AUTO VRB06KT 10SM CLR M01/M08 A3002 RMK AO2
KGHG 162255Z AUTO 27008KT 10SM FEW085 M00/M08 A3001 RMK AO2
KGHG 162235Z AUTO VRB06G13KT 10SM FEW085 M00/M09 A3000 RMK AO2
KGHG 162215Z AUTO VRB06KT 10SM FEW090 M00/M09 A2999 RMK AO2
KGHG 162155Z AUTO 27006KT 10SM FEW110 M00/M09 A2998 RMK AO2
KGHG 162135Z AUTO 26005KT 10SM SCT110 00/M09 A2996 RMK AO2
KGHG 162115Z AUTO 27006G11KT 10SM SCT110 00/M09 A2995 RMK AO2
KGHG 162055Z AUTO 27005KT 10SM FEW110 00/M10 A2994 RMK AO2
KGHG 162035Z AUTO 27009G16KT 230V310 10SM FEW120 01/M10 A2994 RMK AO2
KGHG 162015Z AUTO 28007G14KT 210V360 10SM FEW120 01/M10 A2993 RMK AO2
KGHG 161955Z AUTO 27008G16KT 240V310 10SM CLR 01/M10 A2992 RMK AO2
KGHG 161935Z AUTO 25010G19KT 10SM CLR 01/M10 A2992 RMK AO2
KGHG 161915Z AUTO 25010G18KT 220V280 10SM CLR 01/M10 A2990 RMK AO2
KGHG 161855Z AUTO 28009G19KT 250V350 10SM FEW120 01/M10 A2989 RMK AO2
KGHG 161835Z AUTO 26007G15KT 10SM FEW120 01/M10 A2988 RMK AO2
KGHG 161815Z AUTO 27012KT 10SM CLR 01/M10 A2988 RMK AO2
KGHG 161755Z AUTO 26009G15KT 10SM FEW110 01/M09 A2989 RMK AO2
KGHG 161735Z AUTO 27011G17KT 230V300 10SM CLR 01/M09 A2989 RMK AO2
KGHG 161715Z AUTO 27009KT 190V310 10SM CLR 01/M09 A2990 RMK AO2
KGHG 161655Z AUTO 28009G19KT 240V330 10SM CLR 01/M09 A2991 RMK AO2
KGHG 161635Z AUTO 27012G20KT 230V010 10SM CLR 01/M09 A2991 RMK AO2
KGHG 161615Z AUTO 26007G16KT 230V290 10SM CLR 00/M09 A2992 RMK AO2
KGHG 161555Z AUTO 27009G14KT 240V300 10SM CLR M00/M09 A2991 RMK AO2
KGHG 161535Z AUTO 26010G16KT 230V300 10SM CLR M01/M08 A2993 RMK AO2
KGHG 161515Z AUTO VRB06G16KT 10SM CLR M02/M08 A2994 RMK AO2
KGHG 161455Z AUTO 26009KT 240V300 10SM CLR M03/M08 A2994 RMK AO2
KGHG 161435Z AUTO VRB06G12KT 10SM CLR M04/M08 A2994 RMK AO2
KGHG 161415Z AUTO 26007G12KT 230V300 10SM CLR M04/M09 A2993 RMK AO2
KGHG 161355Z AUTO 26008G14KT 230V290 10SM CLR M04/M08 A2992 RMK AO2
KGHG 161335Z AUTO 26007G14KT 230V300 10SM CLR M05/M09 A2991 RMK AO2
KGHG 161315Z AUTO 26008G15KT 230V290 10SM CLR M05/M09 A2991 RMK AO2
KGHG 161255Z AUTO 25009KT 10SM CLR M06/M09 A2990 RMK AO2
KGHG 161235Z AUTO VRB07KT 10SM CLR M06/M09 A2989 RMK AO2
KGHG 161215Z AUTO 26006KT 10SM CLR M07/M09 A2989 RMK AO2
KGHG 161155Z AUTO 26006G11KT 10SM CLR M07/M09 A2989 RMK AO2
KGHG 161135Z AUTO 25006KT 10SM CLR M07/M09 A2988 RMK AO2
KGHG 161115Z AUTO 26006KT 10SM CLR M07/M08 A2987 RMK AO2
KGHG 161055Z AUTO 26005KT 10SM CLR M07/M08 A2987 RMK AO2
KGHG 161035Z AUTO VRB05KT 10SM CLR M06/M08 A2986 RMK AO2
KGHG 161015Z AUTO VRB06KT 10SM CLR M06/M08 A2985 RMK AO2
KGHG 160955Z AUTO VRB06KT 10SM CLR M06/M08 A2984 RMK AO2
KGHG 160935Z AUTO VRB06KT 10SM FEW095 M06/M08 A2983 RMK AO2
KGHG 160915Z AUTO 27006KT 10SM BKN095 M05/M07 A2982 RMK AO2
KGHG 160855Z AUTO 26005KT 10SM SCT090 M05/M07 A2982 RMK AO2
KGHG 160835Z AUTO VRB05KT 10SM BKN095 M05/M07 A2981 RMK AO2
KGHG 160815Z AUTO 27004KT 10SM SCT095 M05/M07 A2981 RMK AO2
KGHG 160755Z AUTO 26005KT 10SM FEW095 M05/M07 A2981 RMK AO2
KGHG 160735Z AUTO VRB04KT 10SM FEW060 FEW100 M05/M07 A2981 RMK AO2
KGHG 160715Z AUTO VRB03KT 10SM SCT060 BKN100 M05/M07 A2980 RMK AO2
KGHG 160655Z AUTO 28003KT 10SM BKN095 M05/M06 A2980 RMK AO2
KGHG 160635Z AUTO 00000KT M05/M06 A2980 RMK AO2
KGHG 160615Z AUTO 00000KT 10SM FEW031 FEW050 FEW095 M05/M06 A2979 RMK AO2
KGHG 160555Z AUTO VRB04KT 10SM FEW016 FEW040 SCT100 M05/M06 A2978 RMK AO2
KGHG 160535Z AUTO VRB04KT 10SM FEW002 SCT029 OVC041 M04/M06 A2979 RMK AO2
KGHG 160515Z AUTO VRB04KT 5SM BR M04/M06 A2980 RMK AO2
KGHG 160455Z AUTO 00000KT 5SM BR M04/M06 A2980 RMK AO2
KGHG 160435Z AUTO 00000KT 3SM BR BKN001 BKN018 OVC040 M04/M06 A2981 RMK AO2
KGHG 160415Z AUTO 00000KT 3SM -SN BKN001 BKN015 OVC039 M04/M06 A2982 RMK AO2
KGHG 160355Z AUTO 29003KT 4SM BR FEW001 SCT018 BKN040 M04/M05 A2983 RMK AO2
KGHG 160335Z AUTO 00000KT 4SM BR SCT001 BKN018 OVC034 M04/M05 A2983 RMK AO2
KGHG 160315Z AUTO 00000KT 3SM -SN FEW010 BKN016 OVC024 M04/M05 A2984 RMK AO2
KGHG 160255Z AUTO VRB03KT 3SM -SN SCT001 BKN013 OVC022 M04/M05 A2985 RMK AO2
KGHG 160235Z AUTO 00000KT 5SM BR FEW001 SCT010 BKN020 M04/M05 A2985 RMK AO2
KGHG 160215Z AUTO 00000KT 3SM -SN FEW001 SCT010 BKN019 M04/M05 A2985 RMK AO2
KGHG 160155Z AUTO 00000KT 2SM -SN FEW001 BKN010 OVC016 M04/M06 A2985 RMK AO2
KGHG 160135Z AUTO 00000KT 3SM HZ SCT002 BKN010 OVC025 M04/M06 A2986 RMK AO2
KGHG 160115Z AUTO 28003KT 3SM -UP SCT002 BKN010 OVC024 M03/M07 A2987 RMK AO2
KGHG 160055Z AUTO 21005KT 8SM FEW016 SCT021 BKN025 M03/M09 A2988 RMK AO2
KGHG 160035Z AUTO 22003KT 9SM FEW015 SCT021 BKN030 M03/M09 A2988 RMK AO2
KGHG 160015Z AUTO 27003KT 10SM FEW029 SCT035 M03/M10 A2989 RMK AO2
KGHG 152355Z AUTO 00000KT 10SM CLR M03/M10 A2989 RMK AO2
KGHG 152335Z AUTO 00000KT 10SM CLR M03/M09 A2989 RMK AO2
KGHG 152315Z AUTO 00000KT 10SM CLR M03/M09 A2988 RMK AO2
KGHG 152255Z AUTO 00000KT 10SM CLR M03/M10 A2988 RMK AO2
KGHG 152235Z AUTO 00000KT 10SM CLR M03/M10 A2990 RMK AO2
KGHG 152215Z AUTO 00000KT 10SM CLR M03/M11 A2991 RMK AO2
KGHG 152155Z AUTO 00000KT 10SM CLR M03/M11 A2992 RMK AO2
KGHG 152135Z AUTO 00000KT 10SM CLR M03/M11 A2993 RMK AO2
KGHG 152115Z AUTO 00000KT 10SM CLR M03/M11 A2995 RMK AO2
KGHG 152055Z AUTO 00000KT 10SM CLR M03/M11 A2996 RMK AO2
KGHG 152035Z AUTO 00000KT 10SM CLR M03/M11 A2997 RMK AO2
KGHG 152015Z AUTO 00000KT 10SM CLR M03/M11 A2998 RMK AO2
KGHG 151955Z AUTO 00000KT 10SM CLR M03/M11 A2998 RMK AO2
KGHG 151935Z AUTO 21004KT 10SM CLR M03/M12 A2999 RMK AO2
KGHG 151915Z AUTO 00000KT 10SM CLR M03/M12 A3000 RMK AO2
KGHG 151855Z AUTO 19004KT 10SM CLR M03/M12 A3000 RMK AO2
KGHG 151835Z AUTO 00000KT 10SM CLR M03/M12 A3000 RMK AO2
KGHG 151815Z AUTO 00000KT 10SM CLR M03/M12 A3001 RMK AO2
KGHG 151755Z AUTO 00000KT 10SM CLR M03/M12 A3002 RMK AO2
KGHG 151735Z AUTO 27003KT 10SM CLR M03/M12 A3003 RMK AO2
KGHG 151710Z AUTO VRB04KT 10SM CLR M04/M12 A3004 RMK AO2
KGHG 151655Z AUTO 00000KT 10SM CLR M04/M12 A3005 RMK AO2
KGHG 151635Z AUTO VRB04KT 10SM CLR M04/M12 A3007 RMK AO2
KGHG 151615Z AUTO VRB03KT 10SM CLR M04/M12 A3008 RMK AO2
KGHG 151555Z AUTO 22003KT 10SM CLR M04/M13 A3009 RMK AO2
KGHG 151535Z AUTO 25003KT 10SM CLR M04/M12 A3011 RMK AO2
KGHG 151515Z AUTO 00000KT 10SM CLR M05/M12 A3011 RMK AO2
KGHG 151455Z AUTO 22005KT 10SM CLR M05/M12 A3012 RMK AO2
KGHG 151435Z AUTO VRB03KT 10SM CLR M06/M12 A3011 RMK AO2
KGHG 151415Z AUTO 25004KT 10SM CLR M06/M12 A3011 RMK AO2
KGHG 151355Z AUTO VRB03KT 10SM CLR M07/M13 A3010 RMK AO2
KGHG 151335Z AUTO 00000KT 10SM CLR M07/M13 A3010 RMK AO2
KGHG 151315Z AUTO 25003KT 10SM CLR M08/M13 A3010 RMK AO2
KGHG 151255Z AUTO 00000KT 10SM CLR M09/M13 A3010 RMK AO2
KGHG 151235Z AUTO 24003KT 10SM CLR M10/M13 A3010 RMK AO2